Time;durP1;ratioP1;P1;durP2;ratioP2;P2;SDS_P1;SDS_P2;PMS_P1;PMS_P2;Temp;Humidity;BMP_temperature;BMP_pressure;BME280_temperature;BME280_humidity;BME280_pressure;Samples;Min_cycle;Max_cycle;Signal;HPM_P1;HPM_P2
2023/10/06 00:01:41;;;;;;;6.03;2.17;;;;;;;;;;5024520;28;20092;-83
2023/10/06 00:04:12;;;;;;;7.85;2.00;;;;;;;;;;5020212;28;20045;-85
2023/10/06 00:06:42;;;;;;;7.90;2.55;;;;;;;;;;5010960;28;20492;-83
2023/10/06 00:09:12;;;;;;;8.25;2.33;;;;;;;;;;5011457;28;20041;-82
2023/10/06 00:11:40;;;;;;;5.93;2.08;;;;;;;;;;5022376;28;20042;-84
2023/10/06 00:14:07;;;;;;;6.97;2.17;;;;;;;;;;5033768;28;20078;-82
2023/10/06 00:16:40;;;;;;;7.88;2.47;;;;;;;;;;5031254;28;20466;-83
2023/10/06 00:19:32;;;;;;;5.80;2.20;;;;;;;;;;5030851;28;20060;-82
2023/10/06 00:24:55;;;;;;;8.93;2.10;;;;;;;;;;5030956;28;20049;-82
2023/10/06 00:27:30;;;;;;;6.63;2.05;;;;;;;;;;5009071;28;20041;-85
2023/10/06 00:29:57;;;;;;;7.28;1.98;;;;;;;;;;5009640;28;20042;-83
2023/10/06 00:32:26;;;;;;;8.75;2.25;;;;;;;;;;5013264;28;20049;-84
2023/10/06 00:34:54;;;;;;;7.47;2.25;;;;;;;;;;5009301;28;20042;-85
2023/10/06 00:37:24;;;;;;;4.93;2.20;;;;;;;;;;5008813;28;20041;-83
2023/10/06 00:39:54;;;;;;;6.28;2.08;;;;;;;;;;5008220;28;20050;-85
2023/10/06 00:42:21;;;;;;;6.30;2.08;;;;;;;;;;5009722;28;20045;-83
2023/10/06 00:44:48;;;;;;;7.45;2.20;;;;;;;;;;4993290;28;20049;-84
2023/10/06 00:47:15;;;;;;;4.38;1.88;;;;;;;;;;5010297;28;20160;-83
2023/10/06 00:49:43;;;;;;;8.80;2.25;;;;;;;;;;5009776;28;20096;-85
2023/10/06 00:52:12;;;;;;;5.28;2.22;;;;;;;;;;5010947;28;20038;-84
2023/10/06 00:54:43;;;;;;;8.18;2.05;;;;;;;;;;4993456;28;20046;-84
2023/10/06 00:57:11;;;;;;;10.80;2.60;;;;;;;;;;5009741;28;20138;-84
2023/10/06 00:59:38;;;;;;;9.18;2.25;;;;;;;;;;4993597;28;20038;-84
2023/10/06 01:02:13;;;;;;;6.18;2.08;;;;;;;;;;5010204;28;20045;-83
2023/10/06 01:04:52;;;;;;;6.20;2.45;;;;;;;;;;5011056;28;20054;-85
2023/10/06 01:07:19;;;;;;;8.23;2.40;;;;;;;;;;5011464;28;20377;-82
2023/10/06 01:09:56;;;;;;;7.05;2.08;;;;;;;;;;4994065;28;20066;-83
2023/10/06 01:12:24;;;;;;;8.65;2.50;;;;;;;;;;5013088;28;20114;-84
2023/10/06 01:14:52;;;;;;;5.30;2.28;;;;;;;;;;5012220;28;20109;-85
2023/10/06 01:17:19;;;;;;;9.15;3.00;;;;;;;;;;5010694;28;20117;-81
2023/10/06 01:19:49;;;;;;;7.57;2.60;;;;;;;;;;5009362;28;20053;-83
2023/10/06 01:22:27;;;;;;;7.22;2.53;;;;;;;;;;5012236;28;20125;-83
2023/10/06 01:24:54;;;;;;;7.88;2.85;;;;;;;;;;5009959;28;20042;-82
2023/10/06 01:27:27;;;;;;;7.75;3.13;;;;;;;;;;4994414;28;20061;-83
2023/10/06 01:30:17;;;;;;;8.25;3.65;;;;;;;;;;5009813;28;20144;-85
2023/10/06 01:32:44;;;;;;;10.82;3.85;;;;;;;;;;5007295;28;20053;-83
2023/10/06 01:35:12;;;;;;;11.10;3.92;;;;;;;;;;5011139;28;20053;-82
2023/10/06 01:37:42;;;;;;;12.32;3.78;;;;;;;;;;5009195;28;20094;-83
2023/10/06 01:40:16;;;;;;;8.57;3.17;;;;;;;;;;5009480;28;20038;-83
2023/10/06 01:42:43;;;;;;;10.60;3.10;;;;;;;;;;5010507;28;20516;-82
2023/10/06 01:45:21;;;;;;;10.07;3.00;;;;;;;;;;5011997;28;20042;-83
2023/10/06 01:48:01;;;;;;;8.77;2.97;;;;;;;;;;5019238;28;20049;-81
2023/10/06 01:50:27;;;;;;;8.90;2.40;;;;;;;;;;5007131;28;20104;-82
2023/10/06 01:52:55;;;;;;;6.07;1.83;;;;;;;;;;5012429;28;20332;-84
2023/10/06 01:55:24;;;;;;;6.55;2.28;;;;;;;;;;5011772;28;20049;-83
2023/10/06 01:57:51;;;;;;;9.80;2.58;;;;;;;;;;5011685;28;20049;-82
2023/10/06 02:00:31;;;;;;;8.32;2.47;;;;;;;;;;5012902;28;20097;-83
2023/10/06 02:02:58;;;;;;;6.82;1.77;;;;;;;;;;5011807;28;20077;-82
2023/10/06 02:05:25;;;;;;;6.30;1.98;;;;;;;;;;5012637;28;20045;-82
2023/10/06 02:08:00;;;;;;;8.15;2.10;;;;;;;;;;5013821;28;20536;-82
2023/10/06 02:10:27;;;;;;;5.45;1.85;;;;;;;;;;5013772;28;20068;-83
2023/10/06 02:12:55;;;;;;;6.45;2.05;;;;;;;;;;5015675;28;20100;-83
2023/10/06 02:15:22;;;;;;;6.95;2.10;;;;;;;;;;5010899;28;20026;-87
2023/10/06 02:17:50;;;;;;;8.65;2.60;;;;;;;;;;5047885;28;20042;-84
2023/10/06 02:20:30;;;;;;;10.50;2.45;;;;;;;;;;5032627;28;20030;-86
2023/10/06 02:22:58;;;;;;;6.57;2.47;;;;;;;;;;5034438;28;20045;-82
2023/10/06 02:25:25;;;;;;;3.33;1.63;;;;;;;;;;5051395;28;20054;-86
2023/10/06 02:27:52;;;;;;;8.95;2.30;;;;;;;;;;5027354;28;20059;-85
2023/10/06 02:30:33;;;;;;;4.13;1.88;;;;;;;;;;4998181;28;20043;-85
2023/10/06 02:33:00;;;;;;;8.57;2.55;;;;;;;;;;5019289;28;20116;-84
2023/10/06 02:35:27;;;;;;;6.78;2.35;;;;;;;;;;5012501;28;20474;-85
2023/10/06 02:37:57;;;;;;;7.28;2.17;;;;;;;;;;5036048;28;20068;-84
2023/10/06 02:40:31;;;;;;;8.30;2.30;;;;;;;;;;5032242;28;20068;-84
2023/10/06 02:43:00;;;;;;;5.82;2.40;;;;;;;;;;5029181;28;20477;-83
2023/10/06 02:45:37;;;;;;;4.78;2.28;;;;;;;;;;5013751;28;20416;-83
2023/10/06 02:48:14;;;;;;;6.15;2.55;;;;;;;;;;4985538;28;20037;-83
2023/10/06 02:50:46;;;;;;;6.82;2.47;;;;;;;;;;5015565;28;20212;-83
2023/10/06 02:53:13;;;;;;;11.35;2.70;;;;;;;;;;5002198;28;20556;-83
2023/10/06 02:55:43;;;;;;;6.90;2.92;;;;;;;;;;5058728;28;20077;-81
2023/10/06 02:58:23;;;;;;;5.88;2.65;;;;;;;;;;5015499;28;20105;-84
2023/10/06 03:00:50;;;;;;;6.00;2.80;;;;;;;;;;5029100;28;20045;-82
2023/10/06 03:03:22;;;;;;;8.38;3.00;;;;;;;;;;5006530;28;20575;-84
2023/10/06 03:05:49;;;;;;;7.18;2.83;;;;;;;;;;5024466;28;20133;-84
2023/10/06 03:08:20;;;;;;;5.97;2.80;;;;;;;;;;5011287;28;20041;-84
2023/10/06 03:10:48;;;;;;;7.85;2.50;;;;;;;;;;5021327;28;20309;-84
2023/10/06 03:13:32;;;;;;;6.93;2.17;;;;;;;;;;5016333;28;20046;-84
2023/10/06 03:16:03;;;;;;;6.15;2.60;;;;;;;;;;5018695;28;20149;-83
2023/10/06 03:18:30;;;;;;;11.20;3.00;;;;;;;;;;5020959;28;20081;-85
2023/10/06 03:21:04;;;;;;;7.30;2.72;;;;;;;;;;5019890;28;21951;-84
2023/10/06 03:25:58;;;;;;;10.52;3.00;;;;;;;;;;5024003;28;20524;-86
2023/10/06 03:28:42;;;;;;;5.50;2.63;;;;;;;;;;5034141;28;20117;-84
2023/10/06 03:31:44;;;;;;;8.95;2.60;;;;;;;;;;5012272;28;20359;-85
2023/10/06 03:33:57;;;;;;;7.78;2.85;;;;;;;;;;5028311;28;20056;-83
2023/10/06 03:36:36;;;;;;;7.60;2.70;;;;;;;;;;5015104;28;20042;-84
2023/10/06 03:39:09;;;;;;;7.50;2.30;;;;;;;;;;5024929;28;20081;-85
2023/10/06 03:41:37;;;;;;;9.25;3.03;;;;;;;;;;5013623;28;20204;-83
2023/10/06 03:44:04;;;;;;;7.43;2.70;;;;;;;;;;4999543;28;20053;-85
2023/10/06 03:46:38;;;;;;;8.13;2.92;;;;;;;;;;5019221;28;20049;-83
2023/10/06 03:49:07;;;;;;;13.50;3.63;;;;;;;;;;5018935;28;21002;-83
2023/10/06 03:51:41;;;;;;;7.30;3.17;;;;;;;;;;4999347;28;20073;-87
2023/10/06 03:54:09;;;;;;;8.65;3.08;;;;;;;;;;5007645;28;20050;-84
2023/10/06 03:56:36;;;;;;;9.73;3.60;;;;;;;;;;5035838;28;20054;-83
2023/10/06 03:59:12;;;;;;;7.63;3.08;;;;;;;;;;5026189;28;20100;-83
2023/10/06 04:01:39;;;;;;;4.90;2.60;;;;;;;;;;5018024;28;20042;-84
2023/10/06 04:04:07;;;;;;;5.80;2.83;;;;;;;;;;5027672;28;20038;-84
2023/10/06 04:06:35;;;;;;;6.60;2.97;;;;;;;;;;5020238;28;20046;-81
2023/10/06 04:09:02;;;;;;;6.50;2.88;;;;;;;;;;5017392;28;20034;-84
2023/10/06 04:11:33;;;;;;;6.05;2.83;;;;;;;;;;5018391;28;20084;-85
2023/10/06 04:14:00;;;;;;;7.57;2.90;;;;;;;;;;5030934;28;20037;-85
2023/10/06 04:16:27;;;;;;;6.13;2.65;;;;;;;;;;5008703;28;20049;-81
2023/10/06 04:18:54;;;;;;;6.82;3.30;;;;;;;;;;5025521;28;20041;-84
2023/10/06 04:21:24;;;;;;;8.40;3.40;;;;;;;;;;5026921;28;20135;-85
2023/10/06 04:23:51;;;;;;;7.60;2.97;;;;;;;;;;5046308;28;20088;-84
2023/10/06 04:26:18;;;;;;;7.75;2.75;;;;;;;;;;5036717;28;20056;-84
2023/10/06 04:28:46;;;;;;;9.35;3.28;;;;;;;;;;5043720;28;20268;-84
2023/10/06 04:31:15;;;;;;;6.07;2.50;;;;;;;;;;5036528;28;20069;-84
2023/10/06 04:33:42;;;;;;;6.65;2.80;;;;;;;;;;5035819;28;20069;-84
2023/10/06 04:36:10;;;;;;;8.80;3.05;;;;;;;;;;5068042;28;20093;-84
2023/10/06 04:38:38;;;;;;;9.63;3.13;;;;;;;;;;5036823;28;20101;-84
2023/10/06 04:41:08;;;;;;;10.10;3.15;;;;;;;;;;5032784;28;20037;-84
2023/10/06 04:43:36;;;;;;;8.55;3.30;;;;;;;;;;5035578;28;20045;-84
2023/10/06 04:46:06;;;;;;;7.13;3.45;;;;;;;;;;5037961;28;20046;-84
2023/10/06 04:48:35;;;;;;;8.90;2.90;;;;;;;;;;5032028;28;20061;-82
2023/10/06 04:51:05;;;;;;;8.70;3.05;;;;;;;;;;5031107;28;20065;-83
2023/10/06 04:53:35;;;;;;;4.68;2.78;;;;;;;;;;5032377;28;20068;-84
2023/10/06 04:56:05;;;;;;;7.03;2.65;;;;;;;;;;5032077;28;20045;-84
2023/10/06 04:58:32;;;;;;;5.95;2.70;;;;;;;;;;5033990;28;20052;-83
2023/10/06 05:01:07;;;;;;;6.82;2.63;;;;;;;;;;5035785;28;20061;-84
2023/10/06 05:03:45;;;;;;;4.45;2.55;;;;;;;;;;5049263;28;20076;-85
2023/10/06 05:06:15;;;;;;;7.53;2.55;;;;;;;;;;5035998;28;20049;-81
2023/10/06 05:08:49;;;;;;;6.20;3.20;;;;;;;;;;5045275;28;20351;-83
2023/10/06 05:11:17;;;;;;;7.65;3.40;;;;;;;;;;5037625;28;20432;-84
2023/10/06 05:13:47;;;;;;;10.43;3.00;;;;;;;;;;5038828;28;20049;-84
2023/10/06 05:16:15;;;;;;;5.47;2.63;;;;;;;;;;5035116;28;20046;-83
2023/10/06 05:18:44;;;;;;;11.00;3.20;;;;;;;;;;5046760;28;20045;-86
2023/10/06 05:21:11;;;;;;;6.40;3.03;;;;;;;;;;5035426;28;20037;-83
2023/10/06 05:23:38;;;;;;;6.53;2.88;;;;;;;;;;5038880;28;20045;-83
2023/10/06 05:26:08;;;;;;;6.15;2.70;;;;;;;;;;5026530;28;20057;-84
2023/10/06 05:28:39;;;;;;;6.00;2.78;;;;;;;;;;5050361;28;20045;-84
2023/10/06 05:31:07;;;;;;;5.32;2.53;;;;;;;;;;5037222;28;20037;-83
2023/10/06 05:33:33;;;;;;;7.88;2.80;;;;;;;;;;5042300;28;20045;-84
2023/10/06 05:36:09;;;;;;;8.18;3.30;;;;;;;;;;5036013;28;20041;-85
2023/10/06 05:38:37;;;;;;;6.80;2.35;;;;;;;;;;5044585;28;20105;-82
2023/10/06 05:41:11;;;;;;;8.82;2.88;;;;;;;;;;5024868;28;20061;-84
2023/10/06 05:43:39;;;;;;;6.38;2.92;;;;;;;;;;5041138;28;20110;-83
2023/10/06 05:46:06;;;;;;;7.35;2.88;;;;;;;;;;5014535;28;20043;-83
2023/10/06 05:48:34;;;;;;;6.47;2.83;;;;;;;;;;5016820;28;20479;-82
2023/10/06 05:51:11;;;;;;;6.07;2.80;;;;;;;;;;5039337;28;20068;-82
2023/10/06 05:53:38;;;;;;;6.72;3.13;;;;;;;;;;5036184;28;20546;-82
2023/10/06 05:56:09;;;;;;;7.03;2.92;;;;;;;;;;5042612;28;20492;-82
2023/10/06 05:58:40;;;;;;;8.40;3.60;;;;;;;;;;5037026;28;20061;-82
2023/10/06 06:01:10;;;;;;;7.28;3.15;;;;;;;;;;5042275;28;20281;-84
2023/10/06 06:03:49;;;;;;;8.77;3.30;;;;;;;;;;5043561;28;20041;-85
2023/10/06 06:06:22;;;;;;;8.23;3.13;;;;;;;;;;5015116;28;20064;-82
2023/10/06 06:08:51;;;;;;;7.10;3.15;;;;;;;;;;5040360;28;20052;-83
2023/10/06 06:11:18;;;;;;;11.50;3.83;;;;;;;;;;5036803;28;20056;-84
2023/10/06 06:13:45;;;;;;;10.10;3.30;;;;;;;;;;5043288;28;20144;-80
2023/10/06 06:16:25;;;;;;;8.43;3.20;;;;;;;;;;5041106;28;20053;-85
2023/10/06 06:18:51;;;;;;;7.82;3.70;;;;;;;;;;5038241;28;20053;-85
2023/10/06 06:21:24;;;;;;;6.03;3.20;;;;;;;;;;5031497;28;20045;-84
2023/10/06 06:23:53;;;;;;;8.45;3.60;;;;;;;;;;5039401;28;20065;-85
2023/10/06 06:26:20;;;;;;;7.85;3.65;;;;;;;;;;5044479;28;20046;-80
2023/10/06 06:28:47;;;;;;;8.73;4.22;;;;;;;;;;5048700;28;20045;-85
2023/10/06 06:31:18;;;;;;;8.82;2.97;;;;;;;;;;5035318;28;20466;-85
2023/10/06 06:33:48;;;;;;;13.75;4.43;;;;;;;;;;5031945;28;20076;-84
2023/10/06 06:36:18;;;;;;;6.88;2.92;;;;;;;;;;5031028;28;20050;-84
2023/10/06 06:38:46;;;;;;;6.55;3.15;;;;;;;;;;5032555;28;20076;-86
2023/10/06 06:41:12;;;;;;;6.18;3.05;;;;;;;;;;5030725;28;20058;-84
2023/10/06 06:43:44;;;;;;;7.80;3.45;;;;;;;;;;5032662;28;20045;-84
2023/10/06 06:46:12;;;;;;;8.07;3.40;;;;;;;;;;5036704;28;20053;-85
2023/10/06 06:48:39;;;;;;;8.45;2.90;;;;;;;;;;5042815;28;20071;-85
2023/10/06 06:51:05;;;;;;;6.72;2.30;;;;;;;;;;5036794;28;20124;-85
2023/10/06 06:53:32;;;;;;;5.43;2.20;;;;;;;;;;5044310;28;20045;-82
2023/10/06 06:55:59;;;;;;;7.20;2.25;;;;;;;;;;5042313;28;20041;-83
2023/10/06 06:58:26;;;;;;;3.95;1.70;;;;;;;;;;5052964;28;20041;-86
2023/10/06 07:00:52;;;;;;;6.47;1.80;;;;;;;;;;5044805;28;20350;-81
2023/10/06 07:03:19;;;;;;;6.72;1.63;;;;;;;;;;5040351;28;20096;-78
2023/10/06 07:05:46;;;;;;;6.30;1.75;;;;;;;;;;5046206;28;20041;-81
2023/10/06 07:08:12;;;;;;;5.40;1.83;;;;;;;;;;5036367;28;20194;-83
2023/10/06 07:10:46;;;;;;;3.00;1.58;;;;;;;;;;5034980;28;20045;-85
2023/10/06 07:13:13;;;;;;;9.57;1.98;;;;;;;;;;5041040;28;20049;-81
2023/10/06 07:15:41;;;;;;;3.63;1.60;;;;;;;;;;5037716;28;20030;-83
2023/10/06 07:18:10;;;;;;;4.53;1.70;;;;;;;;;;5039427;28;20487;-84
2023/10/06 07:20:37;;;;;;;5.25;1.50;;;;;;;;;;5027508;28;20919;-83
2023/10/06 07:23:04;;;;;;;4.68;1.52;;;;;;;;;;5016249;28;20895;-85
2023/10/06 07:25:31;;;;;;;5.03;1.63;;;;;;;;;;5023546;28;20049;-82
2023/10/06 07:27:58;;;;;;;7.10;1.58;;;;;;;;;;5021450;28;20050;-85
2023/10/06 07:30:29;;;;;;;8.38;1.75;;;;;;;;;;5017519;28;20069;-83
2023/10/06 07:32:55;;;;;;;5.55;1.40;;;;;;;;;;5016020;28;20269;-84
2023/10/06 07:35:30;;;;;;;6.88;1.80;;;;;;;;;;4996800;28;20046;-83
2023/10/06 07:37:58;;;;;;;4.97;1.38;;;;;;;;;;5043835;28;20038;-85
2023/10/06 07:40:27;;;;;;;5.13;1.60;;;;;;;;;;5015945;28;20084;-84
2023/10/06 07:42:58;;;;;;;4.93;1.63;;;;;;;;;;5017025;28;20046;-82
2023/10/06 07:45:26;;;;;;;3.65;1.40;;;;;;;;;;5014801;28;20046;-82
2023/10/06 07:47:54;;;;;;;6.97;1.67;;;;;;;;;;5018094;28;20046;-82
2023/10/06 07:50:21;;;;;;;2.55;1.40;;;;;;;;;;5017919;28;20119;-83
2023/10/06 07:52:48;;;;;;;5.25;1.58;;;;;;;;;;5012565;28;20097;-83
2023/10/06 07:55:16;;;;;;;5.03;1.48;;;;;;;;;;5012631;28;20077;-84
2023/10/06 07:57:48;;;;;;;5.00;1.23;;;;;;;;;;5016200;28;20084;-82
2023/10/06 08:00:27;;;;;;;4.93;1.77;;;;;;;;;;5031700;28;20123;-80
2023/10/06 08:02:54;;;;;;;5.65;1.73;;;;;;;;;;5019767;28;20057;-81
2023/10/06 08:05:21;;;;;;;5.10;1.80;;;;;;;;;;5010708;28;20504;-80
2023/10/06 08:07:47;;;;;;;5.95;1.50;;;;;;;;;;5016354;28;20045;-79
2023/10/06 08:10:15;;;;;;;4.80;1.75;;;;;;;;;;5010212;28;20064;-80
2023/10/06 08:12:46;;;;;;;6.18;1.52;;;;;;;;;;5032048;28;20048;-83
2023/10/06 08:15:17;;;;;;;5.43;1.55;;;;;;;;;;5014507;28;20830;-82
2023/10/06 08:17:45;;;;;;;4.30;1.42;;;;;;;;;;5034150;28;20693;-82
2023/10/06 08:20:17;;;;;;;4.05;1.58;;;;;;;;;;5036924;28;20049;-79
2023/10/06 08:22:47;;;;;;;6.25;1.70;;;;;;;;;;5034739;28;20364;-80
2023/10/06 08:25:14;;;;;;;6.10;1.70;;;;;;;;;;5028858;28;20061;-80
2023/10/06 08:27:44;;;;;;;7.25;1.90;;;;;;;;;;5033878;28;20060;-83
2023/10/06 08:30:16;;;;;;;5.80;1.55;;;;;;;;;;5053034;28;20831;-77
2023/10/06 08:32:46;;;;;;;6.72;1.92;;;;;;;;;;5033629;28;20121;-79
2023/10/06 08:35:15;;;;;;;4.55;1.70;;;;;;;;;;5036895;28;21434;-79
2023/10/06 08:37:42;;;;;;;3.55;1.75;;;;;;;;;;5033926;28;20331;-80
2023/10/06 08:40:16;;;;;;;6.28;2.17;;;;;;;;;;5014244;28;20112;-81
2023/10/06 08:42:51;;;;;;;3.72;1.70;;;;;;;;;;5011602;28;20049;-82
2023/10/06 08:45:22;;;;;;;7.13;1.80;;;;;;;;;;5016262;28;20058;-79
2023/10/06 08:47:50;;;;;;;5.90;1.75;;;;;;;;;;5022980;28;20054;-82
2023/10/06 08:50:29;;;;;;;4.10;1.63;;;;;;;;;;5021129;28;20258;-82
2023/10/06 08:52:56;;;;;;;5.28;1.50;;;;;;;;;;5021154;28;20030;-83
2023/10/06 08:55:24;;;;;;;3.63;1.50;;;;;;;;;;5031200;28;20125;-82
2023/10/06 08:57:52;;;;;;;4.93;1.50;;;;;;;;;;5040572;28;20049;-80
2023/10/06 09:00:22;;;;;;;6.05;1.70;;;;;;;;;;5044491;28;20053;-79
2023/10/06 09:02:51;;;;;;;4.72;1.70;;;;;;;;;;5044233;28;20064;-81
2023/10/06 09:05:18;;;;;;;4.75;1.40;;;;;;;;;;5000350;28;20768;-78
2023/10/06 09:08:04;;;;;;;5.97;1.50;;;;;;;;;;5017551;28;21991;-81
2023/10/06 09:10:32;;;;;;;;;;;;;;;;;;5016594;28;20387;-81
2023/10/06 09:13:04;;;;;;;4.55;1.60;;;;;;;;;;5011367;28;19926;-80
2023/10/06 09:15:31;;;;;;;6.53;1.88;;;;;;;;;;5012335;28;20049;-80
2023/10/06 09:17:58;;;;;;;9.35;2.47;;;;;;;;;;5014943;28;20142;-81
2023/10/06 09:20:30;;;;;;;2.75;1.67;;;;;;;;;;5014776;28;20132;-80
2023/10/06 09:22:58;;;;;;;6.43;1.92;;;;;;;;;;5022929;28;20527;-79
2023/10/06 09:25:26;;;;;;;6.65;1.90;;;;;;;;;;5029512;28;20041;-80
2023/10/06 09:28:03;;;;;;;4.95;1.90;;;;;;;;;;5016745;28;20547;-81
2023/10/06 09:30:30;;;;;;;6.85;2.20;;;;;;;;;;5015619;28;20065;-80
2023/10/06 09:33:02;;;;;;;4.88;1.80;;;;;;;;;;5012218;28;20129;-81
2023/10/06 09:35:29;;;;;;;3.88;1.77;;;;;;;;;;5012739;28;20050;-81
2023/10/06 09:38:08;;;;;;;7.22;1.88;;;;;;;;;;5013152;28;20057;-79
2023/10/06 09:40:42;;;;;;;6.15;2.17;;;;;;;;;;5013149;28;20037;-80
2023/10/06 09:43:11;;;;;;;8.20;2.20;;;;;;;;;;5015697;28;20469;-80
2023/10/06 09:45:40;;;;;;;5.35;1.98;;;;;;;;;;5016502;28;20072;-80
2023/10/06 09:48:09;;;;;;;5.60;2.08;;;;;;;;;;4997583;28;20042;-80
2023/10/06 09:50:37;;;;;;;5.55;2.10;;;;;;;;;;5015060;28;20046;-81
2023/10/06 09:53:08;;;;;;;7.30;2.17;;;;;;;;;;5018508;28;20045;-81
2023/10/06 09:55:35;;;;;;;5.93;2.17;;;;;;;;;;5021630;28;20436;-81
2023/10/06 09:58:05;;;;;;;4.10;1.73;;;;;;;;;;5010676;28;20057;-80
2023/10/06 10:00:34;;;;;;;6.40;1.85;;;;;;;;;;5020424;28;20058;-80
2023/10/06 10:03:02;;;;;;;5.03;1.95;;;;;;;;;;5018445;28;20053;-80
2023/10/06 10:05:29;;;;;;;3.95;1.88;;;;;;;;;;5011983;28;20061;-79
2023/10/06 10:07:56;;;;;;;5.10;1.63;;;;;;;;;;5019603;28;20057;-80
2023/10/06 10:10:23;;;;;;;4.22;1.83;;;;;;;;;;4996646;28;20065;-80
2023/10/06 10:13:08;;;;;;;4.53;1.90;;;;;;;;;;5022706;28;20045;-79
2023/10/06 10:15:42;;;;;;;5.53;1.90;;;;;;;;;;5038707;28;20056;-81
2023/10/06 10:18:33;;;;;;;4.68;2.00;;;;;;;;;;5027676;28;20053;-80
2023/10/06 10:21:00;;;;;;;6.60;1.92;;;;;;;;;;5024370;28;21774;-80
2023/10/06 10:23:29;;;;;;;4.82;1.70;;;;;;;;;;5024027;28;20527;-83
2023/10/06 10:26:01;;;;;;;5.75;2.47;;;;;;;;;;5022333;28;20277;-82
2023/10/06 10:28:28;;;;;;;4.75;2.03;;;;;;;;;;5020288;28;20317;-81
2023/10/06 10:30:59;;;;;;;6.43;1.75;;;;;;;;;;5035514;28;20050;-83
2023/10/06 10:33:30;;;;;;;5.75;2.00;;;;;;;;;;5017380;28;21143;-81
2023/10/06 10:36:12;;;;;;;3.40;1.67;;;;;;;;;;5034218;28;20392;-82
2023/10/06 10:38:40;;;;;;;5.32;1.80;;;;;;;;;;5038753;28;20415;-84
2023/10/06 10:41:08;;;;;;;4.90;1.40;;;;;;;;;;5028531;28;20517;-80
2023/10/06 10:43:38;;;;;;;4.20;1.85;;;;;;;;;;5006055;28;20060;-82
2023/10/06 10:46:06;;;;;;;3.88;1.85;;;;;;;;;;5029816;28;20069;-81
2023/10/06 10:48:37;;;;;;;4.88;1.63;;;;;;;;;;5026367;28;20060;-79
2023/10/06 10:51:10;;;;;;;3.95;1.67;;;;;;;;;;5024263;28;20046;-81
2023/10/06 10:53:37;;;;;;;7.18;2.05;;;;;;;;;;5022869;28;20400;-82
2023/10/06 10:56:06;;;;;;;6.68;1.90;;;;;;;;;;5018217;28;20045;-81
2023/10/06 10:58:43;;;;;;;7.03;1.90;;;;;;;;;;5015696;28;20073;-83
2023/10/06 11:01:32;;;;;;;5.45;2.08;;;;;;;;;;5012609;28;20133;-82
2023/10/06 11:04:18;;;;;;;4.82;2.15;;;;;;;;;;5013079;28;20125;-83
2023/10/06 11:06:48;;;;;;;5.95;2.17;;;;;;;;;;5011170;28;20955;-82
2023/10/06 11:09:26;;;;;;;7.68;2.25;;;;;;;;;;5013635;28;20072;-82
2023/10/06 11:11:58;;;;;;;5.10;2.35;;;;;;;;;;5015009;28;20049;-83
2023/10/06 11:14:46;;;;;;;6.00;2.25;;;;;;;;;;5026236;28;20748;-83
2023/10/06 11:17:12;;;;;;;5.35;2.30;;;;;;;;;;5023328;28;20038;-83
2023/10/06 11:19:40;;;;;;;5.97;2.17;;;;;;;;;;5026946;28;20042;-82
2023/10/06 11:22:19;;;;;;;10.13;2.80;;;;;;;;;;5026967;28;20121;-83
2023/10/06 11:24:48;;;;;;;3.70;1.90;;;;;;;;;;5048456;28;20072;-79
2023/10/06 11:27:23;;;;;;;3.70;1.80;;;;;;;;;;5021711;28;20527;-81
2023/10/06 11:29:57;;;;;;;7.07;2.50;;;;;;;;;;5023690;28;20097;-81
2023/10/06 11:32:24;;;;;;;6.40;2.33;;;;;;;;;;5017817;28;20105;-82
2023/10/06 11:34:51;;;;;;;5.22;2.25;;;;;;;;;;5017649;28;20563;-82
2023/10/06 11:37:22;;;;;;;5.55;2.13;;;;;;;;;;5007529;28;20037;-81
2023/10/06 11:39:52;;;;;;;6.85;2.40;;;;;;;;;;5031215;28;20045;-81
2023/10/06 11:42:25;;;;;;;6.05;2.63;;;;;;;;;;5023554;28;20300;-81
2023/10/06 11:44:52;;;;;;;6.93;2.40;;;;;;;;;;5023652;28;20046;-82
2023/10/06 11:47:26;;;;;;;5.95;2.20;;;;;;;;;;5016733;28;20053;-81
2023/10/06 11:49:53;;;;;;;8.23;2.33;;;;;;;;;;5020573;28;20048;-81
2023/10/06 11:52:20;;;;;;;4.88;2.05;;;;;;;;;;5018614;28;20523;-81
2023/10/06 11:54:47;;;;;;;5.22;2.10;;;;;;;;;;5044056;28;20041;-82
2023/10/06 11:57:14;;;;;;;5.88;2.25;;;;;;;;;;5059695;28;20085;-82
2023/10/06 11:59:50;;;;;;;6.63;2.85;;;;;;;;;;5025055;28;20042;-81
2023/10/06 12:02:17;;;;;;;6.03;2.22;;;;;;;;;;5021165;28;20128;-81
2023/10/06 12:04:44;;;;;;;5.93;2.25;;;;;;;;;;5017046;28;20126;-80
2023/10/06 12:07:26;;;;;;;6.07;2.35;;;;;;;;;;5020975;28;20041;-81
2023/10/06 12:10:01;;;;;;;8.50;2.55;;;;;;;;;;5021559;28;20057;-81
2023/10/06 12:12:29;;;;;;;8.98;3.00;;;;;;;;;;5020320;28;20058;-80
2023/10/06 12:14:56;;;;;;;6.65;2.28;;;;;;;;;;5017058;28;20116;-80
2023/10/06 12:17:26;;;;;;;6.72;2.40;;;;;;;;;;5019197;28;20045;-81
2023/10/06 12:19:54;;;;;;;6.45;2.28;;;;;;;;;;5018752;28;20046;-81
2023/10/06 12:22:21;;;;;;;5.30;2.33;;;;;;;;;;5018727;28;20042;-80
2023/10/06 12:25:06;;;;;;;4.93;2.17;;;;;;;;;;5023225;28;20293;-81
2023/10/06 12:27:32;;;;;;;4.75;2.28;;;;;;;;;;5018042;28;20069;-81
2023/10/06 12:30:03;;;;;;;8.60;2.17;;;;;;;;;;5023078;28;20105;-80
2023/10/06 12:32:30;;;;;;;6.00;2.20;;;;;;;;;;5027501;28;20056;-82
2023/10/06 12:34:59;;;;;;;4.57;2.00;;;;;;;;;;5021910;28;20034;-80
2023/10/06 12:37:26;;;;;;;6.07;2.25;;;;;;;;;;5028489;28;20042;-79
2023/10/06 12:39:53;;;;;;;5.00;1.70;;;;;;;;;;5029313;28;20056;-80
2023/10/06 12:42:20;;;;;;;4.68;2.13;;;;;;;;;;5042690;28;20061;-80
2023/10/06 12:44:46;;;;;;;6.07;1.60;;;;;;;;;;5036278;28;20045;-79
2023/10/06 12:47:13;;;;;;;5.15;2.22;;;;;;;;;;5040735;28;20063;-79
2023/10/06 12:49:43;;;;;;;6.72;1.90;;;;;;;;;;5044613;28;20178;-81
2023/10/06 12:52:11;;;;;;;6.13;1.80;;;;;;;;;;5060770;28;20049;-81
2023/10/06 12:54:39;;;;;;;8.85;2.25;;;;;;;;;;5035426;28;20467;-81
2023/10/06 12:57:06;;;;;;;7.78;1.90;;;;;;;;;;5033045;28;20459;-82
2023/10/06 12:59:32;;;;;;;4.85;1.70;;;;;;;;;;5035315;28;20224;-81
2023/10/06 13:02:03;;;;;;;4.35;1.50;;;;;;;;;;5029323;28;20092;-80
2023/10/06 13:04:30;;;;;;;6.53;1.98;;;;;;;;;;5015139;28;20068;-80
2023/10/06 13:06:59;;;;;;;4.85;1.60;;;;;;;;;;5021425;28;20069;-79
2023/10/06 13:09:27;;;;;;;3.78;1.50;;;;;;;;;;5022122;28;20053;-81
2023/10/06 13:11:54;;;;;;;4.68;1.75;;;;;;;;;;5018537;28;20041;-80
2023/10/06 13:14:21;;;;;;;3.65;1.63;;;;;;;;;;5009722;28;20057;-81
2023/10/06 13:16:48;;;;;;;6.95;1.50;;;;;;;;;;5016037;28;20453;-82
2023/10/06 13:19:14;;;;;;;4.47;1.73;;;;;;;;;;5017372;28;20172;-79
2023/10/06 13:21:42;;;;;;;4.97;1.60;;;;;;;;;;5015141;28;20049;-80
2023/10/06 13:24:12;;;;;;;4.18;1.70;;;;;;;;;;5014092;28;20046;-79
2023/10/06 13:26:42;;;;;;;7.15;1.50;;;;;;;;;;5013755;28;20044;-79
2023/10/06 13:29:10;;;;;;;5.75;1.80;;;;;;;;;;5012983;28;20041;-79
2023/10/06 13:31:37;;;;;;;6.30;1.48;;;;;;;;;;5014288;28;20085;-80
2023/10/06 13:34:04;;;;;;;3.53;1.45;;;;;;;;;;5016695;28;20049;-81
2023/10/06 13:36:31;;;;;;;5.40;1.35;;;;;;;;;;5020491;28;20062;-81
2023/10/06 13:38:57;;;;;;;3.25;1.35;;;;;;;;;;5016463;28;20096;-79
2023/10/06 13:41:24;;;;;;;6.93;1.50;;;;;;;;;;5013113;28;20066;-81
2023/10/06 13:43:51;;;;;;;4.35;1.65;;;;;;;;;;5020743;28;20105;-80
2023/10/06 13:46:18;;;;;;;4.97;1.52;;;;;;;;;;5023988;28;20046;-78
2023/10/06 13:48:44;;;;;;;4.10;1.38;;;;;;;;;;5019657;28;20412;-80
2023/10/06 13:51:11;;;;;;;3.70;1.25;;;;;;;;;;5025651;28;20057;-81
2023/10/06 13:53:41;;;;;;;2.75;1.23;;;;;;;;;;5027402;28;20045;-81
2023/10/06 13:56:07;;;;;;;5.03;1.20;;;;;;;;;;5021790;28;20045;-81
2023/10/06 13:58:34;;;;;;;5.43;1.55;;;;;;;;;;5012124;28;20128;-81
2023/10/06 14:01:01;;;;;;;5.38;1.55;;;;;;;;;;5018734;28;20053;-80
2023/10/06 14:03:28;;;;;;;2.85;1.40;;;;;;;;;;5021756;28;20050;-80
2023/10/06 14:05:57;;;;;;;4.63;1.33;;;;;;;;;;5026494;28;20041;-80
2023/10/06 14:08:28;;;;;;;3.85;1.10;;;;;;;;;;5020958;28;20054;-79
2023/10/06 14:10:58;;;;;;;3.90;1.33;;;;;;;;;;5058277;28;20050;-81
2023/10/06 14:13:26;;;;;;;7.25;2.05;;;;;;;;;;5026826;28;20049;-79
2023/10/06 14:16:13;;;;;;;3.40;1.38;;;;;;;;;;5026835;28;20050;-79
2023/10/06 14:18:40;;;;;;;3.63;1.10;;;;;;;;;;5031506;28;20503;-80
2023/10/06 14:21:07;;;;;;;4.35;1.63;;;;;;;;;;5022231;28;20046;-78
2023/10/06 14:23:39;;;;;;;4.70;1.40;;;;;;;;;;5022846;28;20038;-80
2023/10/06 14:26:10;;;;;;;2.70;1.13;;;;;;;;;;5003167;28;20042;-79
2023/10/06 14:28:38;;;;;;;4.32;1.42;;;;;;;;;;5021218;28;20042;-82
2023/10/06 14:31:23;;;;;;;2.25;1.20;;;;;;;;;;5025815;28;20096;-82
2023/10/06 14:36:43;;;;;;;3.85;1.35;;;;;;;;;;5012002;28;20399;-82
2023/10/06 14:47:10;;;;;;;6.37;1.63;;;;;;;;;;5041290;28;20041;-81
2023/10/06 14:49:42;;;;;;;4.88;1.55;;;;;;;;;;5036976;28;20056;-82
2023/10/06 14:52:10;;;;;;;4.38;1.50;;;;;;;;;;5035601;28;20073;-81
2023/10/06 14:54:38;;;;;;;4.40;1.35;;;;;;;;;;5035770;28;20053;-82
2023/10/06 14:57:05;;;;;;;8.57;1.80;;;;;;;;;;5019590;28;20050;-81
2023/10/06 14:59:32;;;;;;;6.78;1.35;;;;;;;;;;5019667;28;20042;-82
2023/10/06 15:02:09;;;;;;;5.07;1.35;;;;;;;;;;5018403;28;20049;-81
2023/10/06 15:04:39;;;;;;;4.40;1.50;;;;;;;;;;5019993;28;20062;-82
2023/10/06 15:07:06;;;;;;;6.28;1.65;;;;;;;;;;5019193;28;20740;-81
2023/10/06 15:09:33;;;;;;;5.80;1.45;;;;;;;;;;5027560;28;20050;-81
2023/10/06 15:12:03;;;;;;;5.38;1.60;;;;;;;;;;5026389;28;20049;-80
2023/10/06 15:14:30;;;;;;;6.32;1.50;;;;;;;;;;5029917;28;20060;-80
2023/10/06 15:16:59;;;;;;;6.60;1.95;;;;;;;;;;5026449;28;20046;-81